Time;durP1;ratioP1;P1;durP2;ratioP2;P2;SDS_P1;SDS_P2;PMS_P1;PMS_P2;Temp;Humidity;BMP_temperature;BMP_pressure;BME280_temperature;BME280_humidity;BME280_pressure;Samples;Min_cycle;Max_cycle;Signal;HPM_P1;HPM_P2
2022/04/24 00:09:42;;;;;;;5.60;4.93;;;;;;;22.50;49.78;99488.31;20372441;28;97166;-80
2022/04/24 00:19:44;;;;;;;5.28;4.47;;;;;;;22.47;49.63;99481.53;20376730;28;97858;-80
2022/04/24 00:29:44;;;;;;;5.90;4.93;;;;;;;22.44;49.69;99473.06;20378628;28;96975;-80
2022/04/24 00:39:45;;;;;;;5.70;4.63;;;;;;;22.44;49.93;99438.78;20363485;28;96955;-79
2022/04/24 00:49:46;;;;;;;7.60;4.78;;;;;;;22.41;49.94;99426.72;20377192;28;97908;-80
2022/04/24 00:59:47;;;;;;;5.00;4.20;;;;;;;22.35;49.73;99441.31;20370598;28;100520;-80
2022/04/24 01:09:47;;;;;;;5.47;4.43;;;;;;;22.34;49.70;99441.47;20451279;28;100430;-80
2022/04/24 01:19:49;;;;;;;4.57;3.90;;;;;;;22.35;49.56;99443.09;20459895;28;100798;-81
2022/04/24 01:29:51;;;;;;;5.67;4.47;;;;;;;22.33;49.50;99437.16;20480946;28;97218;-80
2022/04/24 01:39:55;;;;;;;4.77;4.00;;;;;;;22.31;49.53;99421.47;20466362;28;97690;-81
2022/04/24 01:49:55;;;;;;;5.47;4.40;;;;;;;22.29;49.64;99418.16;20453657;28;97883;-80
2022/04/24 01:59:56;;;;;;;4.40;4.00;;;;;;;22.28;49.71;99413.03;20460049;28;101793;-81
2022/04/24 02:09:56;;;;;;;4.68;3.95;;;;;;;22.25;49.55;99414.16;20436004;28;97087;-80
2022/04/24 02:19:56;;;;;;;4.65;3.97;;;;;;;22.23;49.70;99411.66;20460073;28;100466;-81
2022/04/24 02:29:57;;;;;;;4.47;3.78;;;;;;;22.21;49.58;99404.88;20443718;28;101192;-81
2022/04/24 02:39:58;;;;;;;4.25;3.85;;;;;;;22.21;49.51;99407.53;20444611;28;97532;-80
2022/04/24 02:49:59;;;;;;;4.03;3.50;;;;;;;22.20;49.47;99393.53;20453733;28;97116;-80
2022/04/24 03:00:00;;;;;;;4.47;3.28;;;;;;;22.20;49.51;99398.81;20461618;28;101658;-79
2022/04/24 03:10:00;;;;;;;4.75;3.65;;;;;;;22.18;49.50;99392.84;20455192;28;100838;-81
2022/04/24 03:20:04;;;;;;;4.07;3.60;;;;;;;22.16;49.58;99392.16;20459972;28;97308;-81
2022/04/24 03:30:08;;;;;;;4.25;3.45;;;;;;;22.19;49.41;99375.19;20460228;28;98679;-81
2022/04/24 03:40:09;;;;;;;4.05;3.65;;;;;;;22.18;49.38;99360.34;20454594;28;97696;-80
2022/04/24 03:50:10;;;;;;;4.20;3.40;;;;;;;22.13;49.43;99352.91;20447872;28;98217;-81
2022/04/24 04:00:12;;;;;;;3.80;3.30;;;;;;;22.13;49.42;99350.28;20452485;28;97196;-80
2022/04/24 04:10:14;;;;;;;3.83;3.40;;;;;;;22.12;49.22;99358.31;20445849;28;99139;-80
2022/04/24 04:20:15;;;;;;;3.67;3.38;;;;;;;22.15;49.29;99348.31;20466428;28;97213;-80
2022/04/24 04:30:16;;;;;;;3.43;3.13;;;;;;;22.11;49.44;99369.88;20451444;28;100592;-81
2022/04/24 04:40:18;;;;;;;3.25;2.90;;;;;;;22.11;49.45;99359.31;20452194;28;98552;-80
2022/04/24 04:50:20;;;;;;;3.78;3.40;;;;;;;22.10;49.44;99352.38;20455874;28;97039;-81
2022/04/24 05:00:24;;;;;;;3.50;3.13;;;;;;;22.12;49.35;99358.31;20455210;28;97738;-80
2022/04/24 05:10:26;;;;;;;4.00;3.20;;;;;;;22.12;48.90;99361.81;20448406;28;100566;-80
2022/04/24 05:20:26;;;;;;;5.65;3.30;;;;;;;22.26;49.25;99355.16;20438054;28;99483;-79
2022/04/24 05:30:28;;;;;;;5.88;3.60;;;;;;;22.34;50.05;99341.25;20438617;28;96911;-81
2022/04/24 05:40:29;;;;;;;8.27;3.37;;;;;;;22.42;50.49;99351.88;20450930;28;101196;-82
2022/04/24 05:50:29;;;;;;;3.65;3.28;;;;;;;22.43;50.55;99339.53;20456169;28;97632;-81
2022/04/24 06:00:31;;;;;;;3.75;3.35;;;;;;;22.43;50.34;99347.44;20434348;28;101283;-82
2022/04/24 06:10:32;;;;;;;5.30;3.27;;;;;;;22.42;50.61;99329.94;20442610;28;97045;-78
2022/04/24 06:20:32;;;;;;;7.57;3.47;;;;;;;22.47;50.69;99332.94;20441353;28;99775;-78
2022/04/24 06:30:35;;;;;;;6.78;3.28;;;;;;;22.48;50.58;99339.88;20436704;28;97991;-79
2022/04/24 06:40:35;;;;;;;17.80;5.20;;;;;;;22.53;50.46;99340.25;20452189;28;97218;-76
2022/04/24 06:50:38;;;;;;;15.13;6.40;;;;;;;22.55;50.00;99331.19;20441186;28;99109;-77
2022/04/24 07:00:39;;;;;;;;;;;;;;;21.39;43.65;99318.66;20424817;28;98761;-77
2022/04/24 07:10:40;;;;;;;19.40;14.23;;;;;;;20.83;44.58;99328.28;20434819;28;97268;-74
2022/04/24 07:20:41;;;;;;;16.65;12.75;;;;;;;20.55;44.16;99316.81;20440358;28;99965;-75
2022/04/24 07:30:42;;;;;;;19.38;13.02;;;;;;;20.66;44.74;99321.91;20442390;28;99911;-78
2022/04/24 07:40:42;;;;;;;15.40;9.90;;;;;;;21.33;45.82;99306.06;20419703;28;98278;-78
2022/04/24 07:50:46;;;;;;;15.30;7.25;;;;;;;21.62;47.72;99294.59;20418771;28;97706;-80
2022/04/24 08:00:47;;;;;;;13.02;7.18;;;;;;;21.85;47.54;99294.13;20454437;28;96998;-79
2022/04/24 08:10:56;;;;;;;12.93;8.52;;;;;;;21.89;46.36;99300.78;20424783;28;98833;-77
2022/04/24 08:20:56;;;;;;;14.98;8.68;;;;;;;22.01;46.70;99285.59;20420434;28;97324;-76
2022/04/24 08:30:57;;;;;;;12.90;7.53;;;;;;;22.15;46.72;99253.38;20405579;27;97702;-75
2022/04/24 08:41:00;;;;;;;14.30;7.63;;;;;;;22.23;46.15;99239.47;20426952;28;100261;-75
2022/04/24 08:51:05;;;;;;;14.25;6.75;;;;;;;22.29;45.12;99235.34;20407442;28;98638;-77
2022/04/24 09:01:05;;;;;;;12.13;5.82;;;;;;;22.34;45.25;99230.47;20442952;28;97508;-77
2022/04/24 09:11:07;;;;;;;11.25;5.35;;;;;;;22.40;45.24;99206.16;20429835;28;97961;-77
2022/04/24 09:21:11;;;;;;;69.93;35.10;;;;;;;22.42;43.86;99204.16;20449312;28;98241;-80
2022/04/24 09:31:12;;;;;;;74.32;25.38;;;;;;;22.50;44.82;99191.03;20456115;28;100523;-76
2022/04/24 09:41:18;;;;;;;40.67;14.98;;;;;;;22.60;44.45;99182.19;20462095;28;98590;-77
2022/04/24 09:51:20;;;;;;;25.70;11.35;;;;;;;22.76;47.36;99200.72;20452687;28;100684;-76
2022/04/24 10:01:22;;;;;;;20.77;8.43;;;;;;;22.79;45.93;99189.00;20456091;28;102035;-77
2022/04/24 10:11:23;;;;;;;13.40;6.60;;;;;;;22.84;46.40;99192.03;20430295;28;98907;-81
2022/04/24 10:21:51;;;;;;;10.88;4.90;;;;;;;22.79;43.83;99221.53;20447859;28;100587;-76
2022/04/24 10:31:54;;;;;;;11.65;3.88;;;;;;;22.79;44.32;99213.59;20438459;28;101195;-83
2022/04/24 10:41:57;;;;;;;8.77;4.35;;;;;;;22.95;47.31;99212.84;20454801;28;97387;-79
2022/04/24 10:52:00;;;;;;;16.35;4.00;;;;;;;23.03;48.37;99204.97;20453257;28;97013;-77
2022/04/24 11:02:06;;;;;;;10.68;4.13;;;;;;;23.11;48.97;99203.34;20454438;28;99743;-76
2022/04/24 11:12:08;;;;;;;11.63;3.60;;;;;;;23.15;49.68;99202.84;20446355;28;97725;-77
2022/04/24 11:22:12;;;;;;;8.07;2.83;;;;;;;23.21;50.14;99209.31;20449067;28;97868;-78
2022/04/24 11:32:13;;;;;;;11.20;3.00;;;;;;;23.28;50.75;99222.72;20440173;28;100974;-76
2022/04/24 11:42:14;;;;;;;9.93;2.50;;;;;;;23.23;48.23;99227.66;20443276;28;97865;-77
2022/04/24 11:52:15;;;;;;;9.68;1.77;;;;;;;23.22;45.32;99226.00;20442120;28;97393;-76
2022/04/24 12:02:15;;;;;;;6.15;1.90;;;;;;;23.32;46.59;99229.34;20448026;28;101300;-77
2022/04/24 12:12:16;;;;;;;12.48;1.73;;;;;;;23.32;45.19;99185.25;20444369;28;97972;-76
2022/04/24 12:22:25;;;;;;;8.88;1.70;;;;;;;23.55;46.86;99174.06;20443231;28;97964;-78
2022/04/24 12:32:33;;;;;;;9.55;1.98;;;;;;;23.75;47.06;99179.84;20411784;28;97281;-80
2022/04/24 12:42:35;;;;;;;7.60;2.10;;;;;;;23.91;47.58;99168.47;20440839;28;98268;-77
2022/04/24 12:52:36;;;;;;;7.68;2.08;;;;;;;23.97;47.90;99173.09;20442034;28;100351;-76
2022/04/24 13:02:37;;;;;;;15.73;2.05;;;;;;;24.04;48.82;99130.13;20446240;28;97469;-80
2022/04/24 13:12:37;;;;;;;6.90;1.90;;;;;;;24.14;48.06;99144.81;20431679;28;98131;-76
2022/04/24 13:22:38;;;;;;;14.82;2.33;;;;;;;24.19;47.82;99146.13;20445897;28;97120;-76
2022/04/24 13:32:38;;;;;;;8.85;2.00;;;;;;;24.20;47.98;99116.03;20427892;28;99137;-75
2022/04/24 13:42:38;;;;;;;6.28;2.05;;;;;;;24.30;47.91;99117.50;20431105;28;100687;-75
2022/04/24 13:52:39;;;;;;;7.57;2.20;;;;;;;24.34;47.87;99133.88;20434998;28;97983;-74
2022/04/24 14:02:40;;;;;;;5.00;2.00;;;;;;;24.30;47.40;99077.81;20425620;28;102000;-81
2022/04/24 14:12:41;;;;;;;13.73;1.90;;;;;;;24.30;48.43;99092.84;20439101;28;102003;-76
2022/04/24 14:22:41;;;;;;;3.97;1.77;;;;;;;24.13;45.34;99116.72;20446248;28;97397;-75
2022/04/24 14:32:42;;;;;;;4.15;1.65;;;;;;;24.13;46.33;99113.22;20445134;28;96982;-75
2022/04/24 14:42:44;;;;;;;10.95;2.10;;;;;;;24.20;46.23;99100.16;20436356;28;97370;-73
2022/04/24 15:03:04;;;;;;;16.92;2.25;;;;;;;24.27;47.62;99086.09;20439019;28;97674;-75
2022/04/24 15:13:06;;;;;;;10.07;2.13;;;;;;;25.09;47.22;99087.50;20432036;28;99536;-74
2022/04/24 15:23:06;;;;;;;;;;;;;;;24.91;40.43;99084.31;20457178;28;97872;-74
2022/04/24 15:33:07;;;;;;;5.88;1.50;;;;;;;25.15;39.73;99058.69;20441463;28;98833;-75
2022/04/24 15:43:10;;;;;;;5.03;1.90;;;;;;;25.92;39.21;99022.38;20446917;28;99696;-78
2022/04/24 15:53:11;;;;;;;11.70;2.00;;;;;;;26.59;36.41;99029.34;20450598;28;97322;-77
2022/04/24 16:03:11;;;;;;;7.70;2.22;;;;;;;26.74;36.84;99016.00;20448362;28;98687;-79
2022/04/24 16:13:12;;;;;;;8.95;2.45;;;;;;;26.47;37.57;99028.19;20445051;28;97732;-78
2022/04/24 16:23:12;;;;;;;5.67;1.70;;;;;;;26.08;38.15;99022.22;20457531;28;97263;-79
2022/04/24 16:33:13;;;;;;;8.63;2.00;;;;;;;25.69;39.70;99026.75;20446410;28;98757;-79
2022/04/24 16:43:14;;;;;;;5.38;2.30;;;;;;;25.33;40.92;99030.06;20450399;28;98359;-78
2022/04/24 17:03:33;;;;;;;5.00;2.50;;;;;;;24.83;38.39;99044.66;20460824;28;98014;-77
2022/04/24 17:13:34;;;;;;;6.47;1.98;;;;;;;24.65;39.22;99048.38;20450620;28;99682;-76
2022/04/24 17:23:35;;;;;;;6.47;1.90;;;;;;;24.53;39.67;99047.13;20463158;28;96917;-75
2022/04/24 17:33:35;;;;;;;200.90;126.53;;;;;;;24.45;40.27;99045.34;20443305;28;98060;-76
2022/04/24 17:43:37;;;;;;;190.50;118.65;;;;;;;24.31;40.96;99054.81;20448525;28;98632;-76
2022/04/24 17:53:38;;;;;;;204.47;125.93;;;;;;;24.33;44.45;99054.66;20465952;28;97502;-76
2022/04/24 18:03:38;;;;;;;185.73;116.30;;;;;;;24.32;44.94;99058.31;20472632;28;97999;-77
2022/04/24 18:23:59;;;;;;;168.23;99.72;;;;;;;24.21;45.19;99068.25;20443900;28;96906;-77
2022/04/24 18:34:01;;;;;;;149.73;90.72;;;;;;;24.13;47.08;99069.13;20401568;28;100459;-75
2022/04/24 18:44:02;;;;;;;135.75;81.68;;;;;;;24.15;45.94;99087.44;20414815;28;98374;-78
2022/04/24 18:54:04;;;;;;;136.87;82.10;;;;;;;23.98;46.95;99102.53;20433068;28;97663;-76
2022/04/24 19:14:23;;;;;;;116.22;69.50;;;;;;;23.68;47.27;99115.44;20462118;28;97594;-76
2022/04/24 19:24:24;;;;;;;111.57;64.38;;;;;;;23.61;47.78;99123.19;20429419;28;98922;-77
2022/04/24 19:34:26;;;;;;;104.05;61.63;;;;;;;23.52;47.72;99129.47;20440735;28;97130;-76
2022/04/24 19:44:29;;;;;;;94.53;56.78;;;;;;;23.48;48.06;99133.44;20454005;28;97055;-76
2022/04/24 19:54:29;;;;;;;86.05;51.40;;;;;;;23.49;47.85;99153.59;20437239;28;101752;-76
2022/04/24 20:04:30;;;;;;;86.20;50.15;;;;;;;23.46;48.08;99153.91;20461709;28;97742;-75
2022/04/24 20:14:30;;;;;;;76.28;45.63;;;;;;;23.49;47.75;99150.94;20464700;28;98992;-76
2022/04/24 20:24:32;;;;;;;78.10;45.35;;;;;;;23.48;48.00;99155.38;20451272;28;96915;-75
2022/04/24 20:34:33;;;;;;;70.70;42.53;;;;;;;23.49;48.27;99145.66;20447314;28;97368;-76
2022/04/24 20:44:33;;;;;;;68.55;42.00;;;;;;;23.45;48.35;99147.81;20428170;28;100215;-77
2022/04/24 20:54:34;;;;;;;63.38;39.58;;;;;;;23.43;48.37;99159.53;20436977;28;98243;-76
2022/04/24 21:04:35;;;;;;;57.60;37.50;;;;;;;23.40;48.66;99154.56;20438636;28;96975;-76
2022/04/24 21:14:37;;;;;;;59.47;36.42;;;;;;;23.37;48.58;99162.81;20431619;28;97665;-75
2022/04/24 21:24:37;;;;;;;52.70;34.83;;;;;;;23.34;48.71;99162.16;20443020;28;98427;-76
2022/04/24 21:34:38;;;;;;;53.50;34.05;;;;;;;23.30;48.89;99160.84;20442501;28;98073;-75
2022/04/24 21:44:38;;;;;;;52.53;33.45;;;;;;;23.27;48.87;99162.97;20452861;28;97272;-76
2022/04/24 21:54:39;;;;;;;51.60;32.72;;;;;;;23.24;49.06;99147.44;20438064;28;97217;-76
2022/04/24 22:04:39;;;;;;;44.90;30.13;;;;;;;23.17;49.17;99157.84;20440006;28;97684;-76
2022/04/24 22:14:40;;;;;;;44.80;29.02;;;;;;;23.16;49.20;99158.78;20455131;28;98315;-76
2022/04/24 22:24:40;;;;;;;45.22;27.85;;;;;;;23.10;49.20;99162.06;20445115;28;99780;-77
2022/04/24 22:34:41;;;;;;;41.72;26.80;;;;;;;23.08;49.39;99172.78;20444764;28;97860;-76
2022/04/24 22:44:42;;;;;;;40.47;25.67;;;;;;;23.10;49.38;99178.72;20445553;28;97999;-76
2022/04/24 22:54:42;;;;;;;37.90;24.58;;;;;;;23.09;49.83;99174.44;20425165;28;97324;-75
2022/04/24 23:04:43;;;;;;;36.92;24.52;;;;;;;23.05;49.51;99175.75;20448724;28;98508;-76
2022/04/24 23:14:43;;;;;;;35.25;23.23;;;;;;;23.03;49.68;99172.44;20457974;28;101273;-77
2022/04/24 23:24:44;;;;;;;31.10;21.33;;;;;;;23.03;49.51;99172.44;20416723;28;305276;-77
2022/04/24 23:34:48;;;;;;;32.45;21.80;;;;;;;23.01;49.61;99164.69;20445425;28;99851;-76
2022/04/24 23:44:48;;;;;;;32.78;21.20;;;;;;;23.01;49.74;99162.03;20452275;28;98866;-76
2022/04/24 23:54:49;;;;;;;33.25;21.35;;;;;;;23.02;50.01;99163.69;20443121;28;101076;-76
